sensor_id;sensor_type;location;lat;lon;timestamp;P1;durP1;ratioP1;P2;durP2;ratioP2
7211;SDS011;3647;48.792;9.802;2024-03-08T06:31:32;26.35;;;16.20;;
7211;SDS011;3647;48.792;9.802;2024-03-08T06:33:59;23.37;;;13.90;;
7211;SDS011;3647;48.792;9.802;2024-03-08T06:36:26;25.83;;;12.50;;
7211;SDS011;3647;48.792;9.802;2024-03-08T06:38:53;17.27;;;12.10;;
7211;SDS011;3647;48.792;9.802;2024-03-08T06:41:22;21.90;;;12.00;;
7211;SDS011;3647;48.792;9.802;2024-03-08T06:43:48;21.10;;;12.13;;
7211;SDS011;3647;48.792;9.802;2024-03-08T06:46:16;22.87;;;12.43;;
7211;SDS011;3647;48.792;9.802;2024-03-08T06:48:47;22.57;;;12.63;;
7211;SDS011;3647;48.792;9.802;2024-03-08T06:51:14;20.77;;;11.40;;
7211;SDS011;3647;48.792;9.802;2024-03-08T06:53:41;19.57;;;12.07;;
7211;SDS011;3647;48.792;9.802;2024-03-08T06:56:08;19.27;;;12.17;;
7211;SDS011;3647;48.792;9.802;2024-03-08T06:58:35;18.63;;;11.87;;
7211;SDS011;3647;48.792;9.802;2024-03-08T07:01:02;21.33;;;11.87;;
7211;SDS011;3647;48.792;9.802;2024-03-08T07:03:32;18.93;;;12.60;;
7211;SDS011;3647;48.792;9.802;2024-03-08T07:06:00;18.67;;;11.30;;
7211;SDS011;3647;48.792;9.802;2024-03-08T07:08:28;23.67;;;12.50;;
7211;SDS011;3647;48.792;9.802;2024-03-08T07:10:55;23.43;;;12.57;;
7211;SDS011;3647;48.792;9.802;2024-03-08T07:13:23;21.27;;;11.37;;
7211;SDS011;3647;48.792;9.802;2024-03-08T07:15:50;24.00;;;11.50;;
7211;SDS011;3647;48.792;9.802;2024-03-08T07:18:17;20.07;;;12.10;;
7211;SDS011;3647;48.792;9.802;2024-03-08T07:20:44;24.30;;;11.63;;
7211;SDS011;3647;48.792;9.802;2024-03-08T07:23:12;22.10;;;11.90;;
7211;SDS011;3647;48.792;9.802;2024-03-08T07:25:59;25.57;;;12.70;;
7211;SDS011;3647;48.792;9.802;2024-03-08T07:28:26;20.50;;;13.07;;
7211;SDS011;3647;48.792;9.802;2024-03-08T07:30:55;20.87;;;12.37;;
7211;SDS011;3647;48.792;9.802;2024-03-08T07:33:38;21.00;;;11.83;;
7211;SDS011;3647;48.792;9.802;2024-03-08T07:36:05;22.27;;;12.83;;
7211;SDS011;3647;48.792;9.802;2024-03-08T07:38:33;27.70;;;12.67;;
7211;SDS011;3647;48.792;9.802;2024-03-08T07:41:00;21.00;;;11.70;;
7211;SDS011;3647;48.792;9.802;2024-03-08T07:43:27;21.53;;;12.23;;
7211;SDS011;3647;48.792;9.802;2024-03-08T07:45:54;23.60;;;12.57;;
7211;SDS011;3647;48.792;9.802;2024-03-08T07:48:21;23.87;;;12.53;;
7211;SDS011;3647;48.792;9.802;2024-03-08T07:50:48;27.20;;;13.00;;
7211;SDS011;3647;48.792;9.802;2024-03-08T07:53:15;20.77;;;12.43;;
7211;SDS011;3647;48.792;9.802;2024-03-08T07:55:44;21.50;;;13.67;;
7211;SDS011;3647;48.792;9.802;2024-03-08T07:58:11;21.80;;;12.20;;
7211;SDS011;3647;48.792;9.802;2024-03-08T08:00:38;20.80;;;11.83;;
7211;SDS011;3647;48.792;9.802;2024-03-08T08:03:08;20.43;;;11.43;;
7211;SDS011;3647;48.792;9.802;2024-03-08T08:05:35;20.33;;;12.90;;
7211;SDS011;3647;48.792;9.802;2024-03-08T08:08:04;22.03;;;11.97;;
7211;SDS011;3647;48.792;9.802;2024-03-08T08:10:31;22.10;;;12.33;;
7211;SDS011;3647;48.792;9.802;2024-03-08T08:13:00;22.50;;;13.50;;
7211;SDS011;3647;48.792;9.802;2024-03-08T08:15:29;23.33;;;11.97;;
7211;SDS011;3647;48.792;9.802;2024-03-08T08:17:56;24.20;;;12.43;;
7211;SDS011;3647;48.792;9.802;2024-03-08T08:20:23;21.60;;;12.10;;
7211;SDS011;3647;48.792;9.802;2024-03-08T08:22:51;21.67;;;13.10;;
7211;SDS011;3647;48.792;9.802;2024-03-08T08:25:19;24.47;;;12.40;;
7211;SDS011;3647;48.792;9.802;2024-03-08T08:27:49;22.57;;;12.47;;
7211;SDS011;3647;48.792;9.802;2024-03-08T08:30:17;24.00;;;12.30;;
7211;SDS011;3647;48.792;9.802;2024-03-08T08:32:44;22.17;;;13.17;;
7211;SDS011;3647;48.792;9.802;2024-03-08T08:35:12;25.63;;;12.90;;
7211;SDS011;3647;48.792;9.802;2024-03-08T08:37:39;26.50;;;12.73;;
7211;SDS011;3647;48.792;9.802;2024-03-08T08:40:06;20.90;;;12.07;;
7211;SDS011;3647;48.792;9.802;2024-03-08T08:42:35;23.10;;;12.63;;
7211;SDS011;3647;48.792;9.802;2024-03-08T08:45:03;24.73;;;12.53;;
7211;SDS011;3647;48.792;9.802;2024-03-08T08:47:34;22.83;;;12.30;;
7211;SDS011;3647;48.792;9.802;2024-03-08T08:50:01;21.10;;;12.27;;
7211;SDS011;3647;48.792;9.802;2024-03-08T08:52:29;25.73;;;12.97;;
7211;SDS011;3647;48.792;9.802;2024-03-08T08:54:56;26.73;;;13.43;;
7211;SDS011;3647;48.792;9.802;2024-03-08T08:57:24;21.73;;;12.10;;
7211;SDS011;3647;48.792;9.802;2024-03-08T08:59:52;21.73;;;12.83;;
7211;SDS011;3647;48.792;9.802;2024-03-08T09:02:20;23.57;;;11.23;;
7211;SDS011;3647;48.792;9.802;2024-03-08T09:04:49;27.90;;;13.73;;
7211;SDS011;3647;48.792;9.802;2024-03-08T09:07:16;23.53;;;12.53;;
7211;SDS011;3647;48.792;9.802;2024-03-08T09:09:44;22.20;;;12.93;;
7211;SDS011;3647;48.792;9.802;2024-03-08T09:12:11;24.67;;;14.03;;
7211;SDS011;3647;48.792;9.802;2024-03-08T09:14:47;29.27;;;13.87;;
7211;SDS011;3647;48.792;9.802;2024-03-08T09:17:14;22.87;;;12.13;;
7211;SDS011;3647;48.792;9.802;2024-03-08T09:19:46;25.53;;;13.20;;
7211;SDS011;3647;48.792;9.802;2024-03-08T09:22:14;23.67;;;13.20;;
7211;SDS011;3647;48.792;9.802;2024-03-08T09:24:43;22.47;;;12.97;;
7211;SDS011;3647;48.792;9.802;2024-03-08T09:27:10;27.63;;;13.73;;
7211;SDS011;3647;48.792;9.802;2024-03-08T09:29:39;25.53;;;13.10;;
7211;SDS011;3647;48.792;9.802;2024-03-08T09:32:06;25.40;;;13.03;;
7211;SDS011;3647;48.792;9.802;2024-03-08T09:34:33;21.77;;;12.40;;
7211;SDS011;3647;48.792;9.802;2024-03-08T09:37:00;19.00;;;10.83;;
7211;SDS011;3647;48.792;9.802;2024-03-08T09:39:30;30.40;;;14.60;;
7211;SDS011;3647;48.792;9.802;2024-03-08T09:41:58;29.67;;;13.03;;
7211;SDS011;3647;48.792;9.802;2024-03-08T09:44:25;24.37;;;11.97;;
7211;SDS011;3647;48.792;9.802;2024-03-08T09:46:54;22.00;;;12.63;;
7211;SDS011;3647;48.792;9.802;2024-03-08T09:49:23;31.60;;;14.63;;
7211;SDS011;3647;48.792;9.802;2024-03-08T09:51:50;22.97;;;12.33;;
7211;SDS011;3647;48.792;9.802;2024-03-08T09:54:17;22.67;;;12.37;;
7211;SDS011;3647;48.792;9.802;2024-03-08T09:56:47;22.17;;;12.70;;
7211;SDS011;3647;48.792;9.802;2024-03-08T09:59:14;27.40;;;12.90;;
7211;SDS011;3647;48.792;9.802;2024-03-08T10:02:05;26.80;;;13.03;;
7211;SDS011;3647;48.792;9.802;2024-03-08T10:04:39;24.73;;;12.43;;
7211;SDS011;3647;48.792;9.802;2024-03-08T10:07:07;23.00;;;11.80;;
7211;SDS011;3647;48.792;9.802;2024-03-08T10:09:34;21.37;;;11.67;;
7211;SDS011;3647;48.792;9.802;2024-03-08T10:12:02;28.47;;;13.63;;
7211;SDS011;3647;48.792;9.802;2024-03-08T10:14:30;27.23;;;12.87;;
7211;SDS011;3647;48.792;9.802;2024-03-08T10:16:57;20.97;;;12.47;;
7211;SDS011;3647;48.792;9.802;2024-03-08T10:19:25;26.27;;;13.60;;
7211;SDS011;3647;48.792;9.802;2024-03-08T10:21:52;23.70;;;12.57;;
7211;SDS011;3647;48.792;9.802;2024-03-08T10:24:22;24.57;;;12.70;;
7211;SDS011;3647;48.792;9.802;2024-03-08T10:26:51;29.50;;;14.63;;
7211;SDS011;3647;48.792;9.802;2024-03-08T10:29:20;24.83;;;13.13;;
7211;SDS011;3647;48.792;9.802;2024-03-08T10:31:46;24.23;;;12.23;;
7211;SDS011;3647;48.792;9.802;2024-03-08T10:34:16;25.43;;;11.87;;
7211;SDS011;3647;48.792;9.802;2024-03-08T10:36:43;28.00;;;13.87;;
7211;SDS011;3647;48.792;9.802;2024-03-08T10:39:14;24.77;;;12.87;;
7211;SDS011;3647;48.792;9.802;2024-03-08T10:41:49;26.20;;;12.60;;
7211;SDS011;3647;48.792;9.802;2024-03-08T10:44:30;21.00;;;11.67;;
7211;SDS011;3647;48.792;9.802;2024-03-08T10:47:09;24.37;;;12.43;;
7211;SDS011;3647;48.792;9.802;2024-03-08T10:49:46;26.53;;;12.23;;
7211;SDS011;3647;48.792;9.802;2024-03-08T10:52:18;22.90;;;13.00;;
7211;SDS011;3647;48.792;9.802;2024-03-08T10:54:47;22.93;;;12.60;;
7211;SDS011;3647;48.792;9.802;2024-03-08T10:57:16;23.70;;;12.20;;
7211;SDS011;3647;48.792;9.802;2024-03-08T10:59:46;24.57;;;12.47;;
7211;SDS011;3647;48.792;9.802;2024-03-08T11:02:14;22.10;;;11.77;;
7211;SDS011;3647;48.792;9.802;2024-03-08T11:04:47;27.10;;;14.17;;
7211;SDS011;3647;48.792;9.802;2024-03-08T11:07:15;23.20;;;13.13;;
7211;SDS011;3647;48.792;9.802;2024-03-08T11:09:44;19.87;;;12.03;;
7211;SDS011;3647;48.792;9.802;2024-03-08T11:12:23;21.30;;;12.47;;
7211;SDS011;3647;48.792;9.802;2024-03-08T11:14:56;23.53;;;12.10;;
7211;SDS011;3647;48.792;9.802;2024-03-08T11:20:14;24.60;;;12.80;;
7211;SDS011;3647;48.792;9.802;2024-03-08T11:22:42;23.40;;;12.43;;
7211;SDS011;3647;48.792;9.802;2024-03-08T11:28:16;24.03;;;12.33;;
7211;SDS011;3647;48.792;9.802;2024-03-08T11:30:46;26.57;;;12.63;;
7211;SDS011;3647;48.792;9.802;2024-03-08T11:33:35;23.53;;;12.20;;
7211;SDS011;3647;48.792;9.802;2024-03-08T11:36:02;24.73;;;13.53;;
7211;SDS011;3647;48.792;9.802;2024-03-08T11:38:39;21.47;;;11.20;;
7211;SDS011;3647;48.792;9.802;2024-03-08T11:41:07;18.43;;;11.20;;
7211;SDS011;3647;48.792;9.802;2024-03-08T11:43:34;22.07;;;12.40;;
7211;SDS011;3647;48.792;9.802;2024-03-08T11:46:08;22.17;;;12.10;;
7211;SDS011;3647;48.792;9.802;2024-03-08T11:48:37;21.73;;;12.40;;
7211;SDS011;3647;48.792;9.802;2024-03-08T11:51:04;21.43;;;11.60;;
7211;SDS011;3647;48.792;9.802;2024-03-08T11:53:31;25.67;;;12.13;;
7211;SDS011;3647;48.792;9.802;2024-03-08T11:56:05;22.20;;;12.37;;
7211;SDS011;3647;48.792;9.802;2024-03-08T11:58:33;22.20;;;12.13;;
7211;SDS011;3647;48.792;9.802;2024-03-08T12:01:02;22.80;;;12.40;;
7211;SDS011;3647;48.792;9.802;2024-03-08T12:03:32;23.13;;;12.73;;
7211;SDS011;3647;48.792;9.802;2024-03-08T12:05:59;24.17;;;12.83;;
7211;SDS011;3647;48.792;9.802;2024-03-08T12:08:26;20.60;;;12.33;;
7211;SDS011;3647;48.792;9.802;2024-03-08T12:10:54;21.00;;;11.83;;
7211;SDS011;3647;48.792;9.802;2024-03-08T12:13:24;19.93;;;12.47;;
7211;SDS011;3647;48.792;9.802;2024-03-08T12:15:54;20.33;;;10.77;;
7211;SDS011;3647;48.792;9.802;2024-03-08T12:18:23;21.73;;;11.40;;
7211;SDS011;3647;48.792;9.802;2024-03-08T12:20:52;19.60;;;10.73;;
7211;SDS011;3647;48.792;9.802;2024-03-08T12:23:32;23.70;;;13.47;;
7211;SDS011;3647;48.792;9.802;2024-03-08T12:26:08;21.47;;;13.50;;
7211;SDS011;3647;48.792;9.802;2024-03-08T12:28:38;17.83;;;10.97;;
7211;SDS011;3647;48.792;9.802;2024-03-08T12:31:06;22.93;;;12.17;;
7211;SDS011;3647;48.792;9.802;2024-03-08T12:33:35;22.80;;;11.90;;
7211;SDS011;3647;48.792;9.802;2024-03-08T12:36:03;21.53;;;12.30;;
7211;SDS011;3647;48.792;9.802;2024-03-08T12:38:32;24.47;;;12.97;;
7211;SDS011;3647;48.792;9.802;2024-03-08T12:41:01;21.47;;;11.73;;
7211;SDS011;3647;48.792;9.802;2024-03-08T12:43:29;22.13;;;11.97;;
7211;SDS011;3647;48.792;9.802;2024-03-08T12:45:56;22.33;;;12.20;;
7211;SDS011;3647;48.792;9.802;2024-03-08T12:48:23;18.80;;;11.07;;
7211;SDS011;3647;48.792;9.802;2024-03-08T12:50:50;18.63;;;11.27;;
7211;SDS011;3647;48.792;9.802;2024-03-08T12:53:20;20.43;;;12.03;;
7211;SDS011;3647;48.792;9.802;2024-03-08T12:55:48;20.33;;;12.10;;
7211;SDS011;3647;48.792;9.802;2024-03-08T12:58:15;22.67;;;12.17;;
7211;SDS011;3647;48.792;9.802;2024-03-08T13:00:42;21.17;;;11.77;;
7211;SDS011;3647;48.792;9.802;2024-03-08T13:03:09;18.30;;;11.23;;
7211;SDS011;3647;48.792;9.802;2024-03-08T13:05:36;21.40;;;11.20;;
7211;SDS011;3647;48.792;9.802;2024-03-08T13:08:05;22.20;;;12.33;;
7211;SDS011;3647;48.792;9.802;2024-03-08T13:10:38;19.90;;;12.40;;
7211;SDS011;3647;48.792;9.802;2024-03-08T13:13:08;22.87;;;13.30;;
7211;SDS011;3647;48.792;9.802;2024-03-08T13:15:35;22.67;;;11.37;;
7211;SDS011;3647;48.792;9.802;2024-03-08T13:18:02;21.43;;;12.33;;
7211;SDS011;3647;48.792;9.802;2024-03-08T13:20:32;19.20;;;11.23;;
7211;SDS011;3647;48.792;9.802;2024-03-08T13:23:01;19.97;;;10.50;;
7211;SDS011;3647;48.792;9.802;2024-03-08T13:25:28;15.47;;;10.10;;
7211;SDS011;3647;48.792;9.802;2024-03-08T13:27:56;17.47;;;11.20;;
7211;SDS011;3647;48.792;9.802;2024-03-08T13:30:25;21.03;;;10.67;;
7211;SDS011;3647;48.792;9.802;2024-03-08T13:32:52;17.80;;;10.10;;
7211;SDS011;3647;48.792;9.802;2024-03-08T13:35:18;19.07;;;10.87;;
7211;SDS011;3647;48.792;9.802;2024-03-08T13:37:49;17.17;;;9.87;;
7211;SDS011;3647;48.792;9.802;2024-03-08T13:40:17;16.53;;;10.77;;
7211;SDS011;3647;48.792;9.802;2024-03-08T13:42:45;14.60;;;8.83;;
7211;SDS011;3647;48.792;9.802;2024-03-08T13:45:15;17.60;;;9.60;;
7211;SDS011;3647;48.792;9.802;2024-03-08T13:47:47;14.97;;;9.80;;
7211;SDS011;3647;48.792;9.802;2024-03-08T13:50:16;17.63;;;10.40;;
7211;SDS011;3647;48.792;9.802;2024-03-08T13:52:46;19.47;;;10.63;;
7211;SDS011;3647;48.792;9.802;2024-03-08T13:55:16;15.87;;;9.73;;
7211;SDS011;3647;48.792;9.802;2024-03-08T13:57:43;19.10;;;10.70;;
7211;SDS011;3647;48.792;9.802;2024-03-08T14:00:10;15.13;;;9.70;;
7211;SDS011;3647;48.792;9.802;2024-03-08T14:02:39;21.37;;;10.53;;
7211;SDS011;3647;48.792;9.802;2024-03-08T14:05:07;19.23;;;10.50;;
7211;SDS011;3647;48.792;9.802;2024-03-08T14:07:34;19.47;;;10.03;;
7211;SDS011;3647;48.792;9.802;2024-03-08T14:10:01;19.87;;;10.50;;
7211;SDS011;3647;48.792;9.802;2024-03-08T14:12:28;17.00;;;9.87;;
7211;SDS011;3647;48.792;9.802;2024-03-08T14:14:55;18.53;;;10.17;;
7211;SDS011;3647;48.792;9.802;2024-03-08T14:17:24;14.80;;;9.70;;
7211;SDS011;3647;48.792;9.802;2024-03-08T14:19:53;19.40;;;9.53;;
7211;SDS011;3647;48.792;9.802;2024-03-08T14:22:20;16.30;;;9.33;;
7211;SDS011;3647;48.792;9.802;2024-03-08T14:24:48;18.07;;;9.97;;
7211;SDS011;3647;48.792;9.802;2024-03-08T14:27:16;16.73;;;9.67;;
7211;SDS011;3647;48.792;9.802;2024-03-08T14:29:43;17.13;;;10.43;;
7211;SDS011;3647;48.792;9.802;2024-03-08T14:32:11;14.00;;;9.50;;
7211;SDS011;3647;48.792;9.802;2024-03-08T14:34:38;18.00;;;9.30;;
7211;SDS011;3647;48.792;9.802;2024-03-08T14:37:10;13.40;;;9.10;;
7211;SDS011;3647;48.792;9.802;2024-03-08T14:39:51;16.37;;;8.67;;
7211;SDS011;3647;48.792;9.802;2024-03-08T14:45:49;14.70;;;8.33;;
7211;SDS011;3647;48.792;9.802;2024-03-08T14:48:25;15.93;;;8.23;;
7211;SDS011;3647;48.792;9.802;2024-03-08T14:50:52;14.27;;;8.93;;
7211;SDS011;3647;48.792;9.802;2024-03-08T14:53:20;16.43;;;8.83;;
7211;SDS011;3647;48.792;9.802;2024-03-08T14:55:52;16.20;;;8.90;;
7211;SDS011;3647;48.792;9.802;2024-03-08T15:02:02;12.90;;;8.13;;
7211;SDS011;3647;48.792;9.802;2024-03-08T15:04:38;13.07;;;9.30;;
7211;SDS011;3647;48.792;9.802;2024-03-08T15:11:04;11.57;;;7.43;;
7211;SDS011;3647;48.792;9.802;2024-03-08T15:13:40;11.20;;;7.43;;
7211;SDS011;3647;48.792;9.802;2024-03-08T15:19:38;15.43;;;8.73;;
7211;SDS011;3647;48.792;9.802;2024-03-08T15:22:35;16.53;;;8.60;;
7211;SDS011;3647;48.792;9.802;2024-03-08T15:25:26;13.50;;;8.73;;
7211;SDS011;3647;48.792;9.802;2024-03-08T15:32:23;14.23;;;8.63;;
7211;SDS011;3647;48.792;9.802;2024-03-08T15:35:34;14.97;;;8.97;;
7211;SDS011;3647;48.792;9.802;2024-03-08T15:43:13;17.47;;;8.60;;
7211;SDS011;3647;48.792;9.802;2024-03-08T15:45:24;14.87;;;8.23;;
7211;SDS011;3647;48.792;9.802;2024-03-08T15:47:53;13.17;;;8.30;;
7211;SDS011;3647;48.792;9.802;2024-03-08T15:50:26;13.83;;;7.47;;
7211;SDS011;3647;48.792;9.802;2024-03-08T15:53:12;11.87;;;8.17;;
7211;SDS011;3647;48.792;9.802;2024-03-08T15:55:59;13.40;;;7.67;;
7211;SDS011;3647;48.792;9.802;2024-03-08T16:02:01;14.23;;;8.50;;
7211;SDS011;3647;48.792;9.802;2024-03-08T16:04:42;11.80;;;8.17;;
7211;SDS011;3647;48.792;9.802;2024-03-08T16:07:12;11.57;;;7.67;;
7211;SDS011;3647;48.792;9.802;2024-03-08T16:09:40;13.43;;;8.17;;
7211;SDS011;3647;48.792;9.802;2024-03-08T16:12:12;14.77;;;8.57;;
7211;SDS011;3647;48.792;9.802;2024-03-08T16:14:40;14.73;;;8.83;;
7211;SDS011;3647;48.792;9.802;2024-03-08T16:17:09;11.93;;;7.73;;
7211;SDS011;3647;48.792;9.802;2024-03-08T16:19:36;13.57;;;7.90;;
7211;SDS011;3647;48.792;9.802;2024-03-08T16:22:08;13.40;;;8.17;;
7211;SDS011;3647;48.792;9.802;2024-03-08T16:24:35;10.10;;;8.00;;
7211;SDS011;3647;48.792;9.802;2024-03-08T16:27:02;12.10;;;8.03;;
7211;SDS011;3647;48.792;9.802;2024-03-08T16:29:29;12.33;;;7.43;;
7211;SDS011;3647;48.792;9.802;2024-03-08T16:31:56;13.30;;;8.37;;
7211;SDS011;3647;48.792;9.802;2024-03-08T16:34:25;13.37;;;8.17;;
7211;SDS011;3647;48.792;9.802;2024-03-08T16:36:52;13.23;;;8.67;;
7211;SDS011;3647;48.792;9.802;2024-03-08T16:39:19;13.87;;;7.63;;
7211;SDS011;3647;48.792;9.802;2024-03-08T16:41:46;14.90;;;8.07;;
7211;SDS011;3647;48.792;9.802;2024-03-08T16:44:16;13.27;;;8.17;;
7211;SDS011;3647;48.792;9.802;2024-03-08T16:46:44;15.17;;;8.90;;
7211;SDS011;3647;48.792;9.802;2024-03-08T16:49:14;12.50;;;7.73;;
7211;SDS011;3647;48.792;9.802;2024-03-08T16:51:42;12.17;;;7.77;;
7211;SDS011;3647;48.792;9.802;2024-03-08T16:54:09;15.70;;;8.90;;
7211;SDS011;3647;48.792;9.802;2024-03-08T16:56:37;13.20;;;8.33;;
7211;SDS011;3647;48.792;9.802;2024-03-08T16:59:04;14.77;;;8.73;;
7211;SDS011;3647;48.792;9.802;2024-03-08T17:01:33;13.00;;;8.40;;
7211;SDS011;3647;48.792;9.802;2024-03-08T17:04:00;14.47;;;8.20;;
7211;SDS011;3647;48.792;9.802;2024-03-08T17:06:27;13.87;;;7.87;;
7211;SDS011;3647;48.792;9.802;2024-03-08T17:08:56;14.20;;;8.13;;
7211;SDS011;3647;48.792;9.802;2024-03-08T17:11:24;14.27;;;8.17;;
7211;SDS011;3647;48.792;9.802;2024-03-08T17:13:51;15.07;;;7.83;;
7211;SDS011;3647;48.792;9.802;2024-03-08T17:16:18;15.00;;;8.00;;
7211;SDS011;3647;48.792;9.802;2024-03-08T17:18:49;13.00;;;7.63;;
7211;SDS011;3647;48.792;9.802;2024-03-08T17:21:16;11.33;;;7.90;;
7211;SDS011;3647;48.792;9.802;2024-03-08T17:23:43;13.30;;;8.37;;
7211;SDS011;3647;48.792;9.802;2024-03-08T17:26:11;14.27;;;9.20;;
7211;SDS011;3647;48.792;9.802;2024-03-08T17:28:38;13.53;;;8.30;;
7211;SDS011;3647;48.792;9.802;2024-03-08T17:31:07;13.13;;;7.97;;
7211;SDS011;3647;48.792;9.802;2024-03-08T17:33:37;11.43;;;7.47;;
7211;SDS011;3647;48.792;9.802;2024-03-08T17:36:06;11.50;;;7.23;;
7211;SDS011;3647;48.792;9.802;2024-03-08T17:38:36;13.60;;;7.80;;
7211;SDS011;3647;48.792;9.802;2024-03-08T17:41:08;14.23;;;8.27;;
7211;SDS011;3647;48.792;9.802;2024-03-08T17:43:38;14.23;;;7.80;;
7211;SDS011;3647;48.792;9.802;2024-03-08T17:46:06;12.80;;;7.33;;
7211;SDS011;3647;48.792;9.802;2024-03-08T17:48:33;11.53;;;7.70;;
7211;SDS011;3647;48.792;9.802;2024-03-08T17:51:00;13.47;;;7.93;;
7211;SDS011;3647;48.792;9.802;2024-03-08T17:53:27;13.07;;;7.07;;
7211;SDS011;3647;48.792;9.802;2024-03-08T17:55:55;14.90;;;7.60;;
7211;SDS011;3647;48.792;9.802;2024-03-08T17:58:22;11.87;;;7.57;;
7211;SDS011;3647;48.792;9.802;2024-03-08T18:00:52;11.73;;;7.77;;
7211;SDS011;3647;48.792;9.802;2024-03-08T18:03:20;12.07;;;7.70;;
7211;SDS011;3647;48.792;9.802;2024-03-08T18:05:52;9.63;;;6.53;;
7211;SDS011;3647;48.792;9.802;2024-03-08T18:08:19;11.13;;;7.03;;
7211;SDS011;3647;48.792;9.802;2024-03-08T18:10:47;8.93;;;6.43;;
7211;SDS011;3647;48.792;9.802;2024-03-08T18:13:14;9.17;;;6.57;;
7211;SDS011;3647;48.792;9.802;2024-03-08T18:15:43;10.13;;;6.97;;
7211;SDS011;3647;48.792;9.802;2024-03-08T18:18:12;10.57;;;6.97;;
7211;SDS011;3647;48.792;9.802;2024-03-08T18:20:39;10.77;;;6.47;;
7211;SDS011;3647;48.792;9.802;2024-03-08T18:23:11;8.37;;;6.03;;
7211;SDS011;3647;48.792;9.802;2024-03-08T18:25:39;11.63;;;6.67;;
7211;SDS011;3647;48.792;9.802;2024-03-08T18:28:06;9.63;;;6.17;;
7211;SDS011;3647;48.792;9.802;2024-03-08T18:30:34;11.07;;;6.50;;
7211;SDS011;3647;48.792;9.802;2024-03-08T18:33:03;8.80;;;6.20;;
7211;SDS011;3647;48.792;9.802;2024-03-08T18:35:33;8.60;;;6.10;;
7211;SDS011;3647;48.792;9.802;2024-03-08T18:38:03;9.23;;;6.37;;
7211;SDS011;3647;48.792;9.802;2024-03-08T18:40:32;12.63;;;6.40;;
7211;SDS011;3647;48.792;9.802;2024-03-08T18:42:59;11.30;;;6.43;;
7211;SDS011;3647;48.792;9.802;2024-03-08T18:45:26;11.93;;;6.40;;
7211;SDS011;3647;48.792;9.802;2024-03-08T18:47:53;9.93;;;6.60;;
7211;SDS011;3647;48.792;9.802;2024-03-08T18:50:22;10.03;;;6.43;;
7211;SDS011;3647;48.792;9.802;2024-03-08T18:52:51;9.30;;;6.00;;
7211;SDS011;3647;48.792;9.802;2024-03-08T18:55:19;11.03;;;6.63;;
7211;SDS011;3647;48.792;9.802;2024-03-08T18:57:49;10.23;;;7.00;;
7211;SDS011;3647;48.792;9.802;2024-03-08T19:00:16;10.23;;;6.40;;
7211;SDS011;3647;48.792;9.802;2024-03-08T19:02:47;10.90;;;6.33;;
7211;SDS011;3647;48.792;9.802;2024-03-08T19:05:15;11.50;;;6.60;;
7211;SDS011;3647;48.792;9.802;2024-03-08T19:07:42;9.87;;;6.30;;
7211;SDS011;3647;48.792;9.802;2024-03-08T19:10:12;10.07;;;6.07;;
7211;SDS011;3647;48.792;9.802;2024-03-08T19:12:43;10.80;;;6.13;;
7211;SDS011;3647;48.792;9.802;2024-03-08T19:15:12;10.97;;;6.10;;
7211;SDS011;3647;48.792;9.802;2024-03-08T19:17:41;10.97;;;7.57;;
7211;SDS011;3647;48.792;9.802;2024-03-08T19:20:09;9.20;;;6.30;;
7211;SDS011;3647;48.792;9.802;2024-03-08T19:22:41;9.97;;;6.33;;
7211;SDS011;3647;48.792;9.802;2024-03-08T19:25:08;11.20;;;6.33;;
7211;SDS011;3647;48.792;9.802;2024-03-08T19:27:37;8.33;;;6.07;;
7211;SDS011;3647;48.792;9.802;2024-03-08T19:30:07;11.30;;;6.27;;
7211;SDS011;3647;48.792;9.802;2024-03-08T19:32:38;12.47;;;6.77;;
7211;SDS011;3647;48.792;9.802;2024-03-08T19:35:06;11.00;;;7.13;;
7211;SDS011;3647;48.792;9.802;2024-03-08T19:37:36;9.53;;;6.47;;
7211;SDS011;3647;48.792;9.802;2024-03-08T19:40:05;9.57;;;6.53;;
7211;SDS011;3647;48.792;9.802;2024-03-08T19:42:42;8.93;;;5.80;;
7211;SDS011;3647;48.792;9.802;2024-03-08T19:45:10;8.23;;;6.03;;
7211;SDS011;3647;48.792;9.802;2024-03-08T19:47:37;11.30;;;7.43;;
7211;SDS011;3647;48.792;9.802;2024-03-08T19:50:07;10.90;;;6.97;;
7211;SDS011;3647;48.792;9.802;2024-03-08T19:52:35;12.30;;;6.73;;
7211;SDS011;3647;48.792;9.802;2024-03-08T19:55:02;9.70;;;5.73;;
7211;SDS011;3647;48.792;9.802;2024-03-08T19:57:29;9.50;;;6.23;;
7211;SDS011;3647;48.792;9.802;2024-03-08T19:59:57;9.03;;;6.20;;
7211;SDS011;3647;48.792;9.802;2024-03-08T20:02:24;10.40;;;7.10;;
7211;SDS011;3647;48.792;9.802;2024-03-08T20:04:52;11.80;;;6.90;;
7211;SDS011;3647;48.792;9.802;2024-03-08T20:07:20;14.10;;;7.93;;
7211;SDS011;3647;48.792;9.802;2024-03-08T20:09:47;10.17;;;7.30;;
7211;SDS011;3647;48.792;9.802;2024-03-08T20:12:15;9.23;;;6.20;;
7211;SDS011;3647;48.792;9.802;2024-03-08T20:14:42;10.33;;;7.07;;
7211;SDS011;3647;48.792;9.802;2024-03-08T20:17:10;11.60;;;7.13;;
7211;SDS011;3647;48.792;9.802;2024-03-08T20:19:37;13.67;;;7.03;;
7211;SDS011;3647;48.792;9.802;2024-03-08T20:22:04;10.40;;;7.10;;
7211;SDS011;3647;48.792;9.802;2024-03-08T20:24:31;13.30;;;6.83;;
7211;SDS011;3647;48.792;9.802;2024-03-08T20:26:58;10.20;;;7.07;;
7211;SDS011;3647;48.792;9.802;2024-03-08T20:29:36;13.07;;;7.30;;
7211;SDS011;3647;48.792;9.802;2024-03-08T20:32:10;9.73;;;6.57;;
7211;SDS011;3647;48.792;9.802;2024-03-08T20:34:57;11.17;;;6.87;;
7211;SDS011;3647;48.792;9.802;2024-03-08T20:37:39;12.87;;;7.17;;
7211;SDS011;3647;48.792;9.802;2024-03-08T20:40:15;9.20;;;6.00;;
7211;SDS011;3647;48.792;9.802;2024-03-08T20:42:48;13.57;;;7.60;;
7211;SDS011;3647;48.792;9.802;2024-03-08T20:45:21;13.43;;;6.93;;
7211;SDS011;3647;48.792;9.802;2024-03-08T20:47:52;13.17;;;7.03;;
7211;SDS011;3647;48.792;9.802;2024-03-08T20:50:19;10.30;;;6.93;;
7211;SDS011;3647;48.792;9.802;2024-03-08T20:52:49;11.97;;;6.80;;
7211;SDS011;3647;48.792;9.802;2024-03-08T20:55:31;13.07;;;7.67;;
7211;SDS011;3647;48.792;9.802;2024-03-08T20:58:04;9.47;;;6.07;;
7211;SDS011;3647;48.792;9.802;2024-03-08T21:00:31;10.77;;;6.40;;
7211;SDS011;3647;48.792;9.802;2024-03-08T21:03:08;12.77;;;6.83;;
7211;SDS011;3647;48.792;9.802;2024-03-08T21:05:39;11.50;;;7.53;;
7211;SDS011;3647;48.792;9.802;2024-03-08T21:08:15;14.47;;;8.33;;
7211;SDS011;3647;48.792;9.802;2024-03-08T21:10:45;13.27;;;7.70;;
7211;SDS011;3647;48.792;9.802;2024-03-08T21:13:12;10.90;;;6.73;;
7211;SDS011;3647;48.792;9.802;2024-03-08T21:15:46;16.97;;;8.63;;
7211;SDS011;3647;48.792;9.802;2024-03-08T21:18:15;12.23;;;7.00;;
7211;SDS011;3647;48.792;9.802;2024-03-08T21:20:42;11.83;;;7.03;;
7211;SDS011;3647;48.792;9.802;2024-03-08T21:23:16;14.53;;;6.73;;
7211;SDS011;3647;48.792;9.802;2024-03-08T21:25:46;9.93;;;6.60;;
7211;SDS011;3647;48.792;9.802;2024-03-08T21:28:14;13.33;;;7.13;;
7211;SDS011;3647;48.792;9.802;2024-03-08T21:30:46;10.57;;;6.70;;
7211;SDS011;3647;48.792;9.802;2024-03-08T21:33:18;11.07;;;6.87;;
7211;SDS011;3647;48.792;9.802;2024-03-08T21:35:46;9.83;;;6.47;;
7211;SDS011;3647;48.792;9.802;2024-03-08T21:38:19;13.63;;;7.03;;
7211;SDS011;3647;48.792;9.802;2024-03-08T21:40:46;13.07;;;6.80;;
7211;SDS011;3647;48.792;9.802;2024-03-08T21:43:15;12.03;;;7.37;;
7211;SDS011;3647;48.792;9.802;2024-03-08T21:45:47;11.93;;;7.17;;
7211;SDS011;3647;48.792;9.802;2024-03-08T21:48:16;11.63;;;7.63;;
7211;SDS011;3647;48.792;9.802;2024-03-08T21:50:47;12.03;;;7.10;;
7211;SDS011;3647;48.792;9.802;2024-03-08T21:53:16;11.93;;;7.27;;
7211;SDS011;3647;48.792;9.802;2024-03-08T21:55:49;9.80;;;5.93;;
7211;SDS011;3647;48.792;9.802;2024-03-08T21:58:16;14.40;;;7.20;;
7211;SDS011;3647;48.792;9.802;2024-03-08T22:00:44;13.63;;;8.13;;
7211;SDS011;3647;48.792;9.802;2024-03-08T22:03:12;13.00;;;7.75;;
7211;SDS011;3647;48.792;9.802;2024-03-08T22:05:41;11.00;;;6.83;;
7211;SDS011;3647;48.792;9.802;2024-03-08T22:08:14;14.20;;;7.50;;
7211;SDS011;3647;48.792;9.802;2024-03-08T22:10:47;12.53;;;7.40;;
7211;SDS011;3647;48.792;9.802;2024-03-08T22:13:17;10.53;;;7.50;;